createdAt,value
2022-11-05T00:01:51.178Z,100964.19
2022-11-05T00:04:38.989Z,100968.81
2022-11-05T00:07:25.785Z,100916.28
2022-11-05T00:09:55.664Z,100971.13
2022-11-05T00:12:41.027Z,100967.81
2022-11-05T00:15:28.961Z,100971.59
2022-11-05T00:17:58.249Z,100968.25
2022-11-05T00:20:26.106Z,100944.94
2022-11-05T00:23:19.134Z,100977.72
2022-11-05T00:25:55.831Z,100865.03
2022-11-05T00:28:23.690Z,100978.78
2022-11-05T00:30:51.639Z,100985.06
2022-11-05T00:33:20.923Z,100989.06
2022-11-05T00:35:48.797Z,100982.22
2022-11-05T00:38:16.936Z,101003.50
2022-11-05T00:40:45.599Z,100986.84
2022-11-05T00:43:30.953Z,101008.13
2022-11-05T00:45:58.828Z,101015.50
2022-11-05T00:48:45.734Z,101016.97
2022-11-05T00:51:13.648Z,101024.47
2022-11-05T00:53:41.521Z,101020.53
2022-11-05T00:56:09.432Z,101027.81
2022-11-05T00:58:37.345Z,101025.31
2022-11-05T01:01:05.344Z,101022.59
2022-11-05T01:03:36.225Z,101021.75
2022-11-05T01:06:07.795Z,101029.94
2022-11-05T01:08:35.938Z,101030.16
2022-11-05T01:11:09.470Z,101029.94
2022-11-05T01:13:37.315Z,101036.22
2022-11-05T01:16:06.826Z,101039.19
2022-11-05T01:18:37.708Z,101036.44
2022-11-05T01:21:11.902Z,101034.56
2022-11-05T01:23:39.838Z,101030.16
2022-11-05T01:26:07.692Z,101035.63
2022-11-05T01:28:35.904Z,101033.94
2022-11-05T01:31:03.852Z,101047.34
2022-11-05T01:33:31.705Z,101051.97
2022-11-05T01:36:00.928Z,101057.41
2022-11-05T01:38:29.086Z,101068.31
2022-11-05T01:40:56.937Z,101072.72
2022-11-05T01:43:24.916Z,101051.34
2022-11-05T01:45:53.281Z,101027.84
2022-11-05T01:48:22.054Z,100994.28
2022-11-05T01:50:52.154Z,101079.81
2022-11-05T01:53:24.613Z,101070.00
2022-11-05T01:55:56.817Z,101068.53
2022-11-05T01:58:26.590Z,101011.63
2022-11-05T02:00:54.474Z,101085.50
2022-11-05T02:03:22.383Z,101074.59
2022-11-05T02:05:50.311Z,101076.06
2022-11-05T02:08:23.119Z,101042.47
2022-11-05T02:10:51.059Z,101080.47
2022-11-05T02:13:18.937Z,101084.03
2022-11-05T02:15:55.768Z,101033.41
2022-11-05T02:18:29.156Z,101090.31
2022-11-05T02:21:04.024Z,101023.31
2022-11-05T02:23:48.376Z,101070.03
2022-11-05T02:26:54.646Z,101091.38
2022-11-05T02:29:56.430Z,101098.50
2022-11-05T02:32:32.270Z,101099.56
2022-11-05T02:35:04.821Z,101022.34
2022-11-05T02:37:39.075Z,100992.94
2022-11-05T02:40:11.950Z,101101.44
2022-11-05T02:42:43.859Z,101097.66
2022-11-05T02:45:14.847Z,101103.94
2022-11-05T02:47:46.071Z,101016.31
2022-11-05T02:50:19.603Z,101101.00
2022-11-05T02:52:52.611Z,100998.38
2022-11-05T02:55:23.393Z,101104.56
2022-11-05T02:57:51.256Z,101055.91
2022-11-05T03:00:49.588Z,101101.84
2022-11-05T03:03:23.001Z,101101.84
2022-11-05T03:05:57.707Z,101101.84
2022-11-05T03:08:31.968Z,101051.72
2022-11-05T03:11:01.843Z,101096.63
2022-11-05T03:13:32.043Z,101101.00
2022-11-05T03:16:01.360Z,101012.34
2022-11-05T03:18:33.464Z,101099.13
2022-11-05T03:21:03.853Z,101094.72
2022-11-05T03:23:34.422Z,101046.91
2022-11-05T03:26:05.792Z,101100.78
2022-11-05T03:28:37.739Z,101063.44
2022-11-05T03:31:05.931Z,101097.44
2022-11-05T03:33:35.632Z,101080.09
2022-11-05T03:36:06.537Z,101099.56
2022-11-05T03:38:36.053Z,101094.31
2022-11-05T03:41:06.147Z,101107.94
2022-11-05T03:43:35.648Z,101102.47
2022-11-05T03:46:04.172Z,101108.78
2022-11-05T03:48:32.775Z,101079.97
2022-11-05T03:51:03.927Z,101118.84
2022-11-05T03:53:33.342Z,101108.41
2022-11-05T03:56:02.875Z,101079.63
2022-11-05T03:58:31.029Z,101127.63
2022-11-05T04:01:00.362Z,101126.59
2022-11-05T04:03:28.223Z,101129.31
2022-11-05T04:06:10.479Z,101108.81
2022-11-05T04:08:57.072Z,101128.69
2022-11-05T04:11:38.795Z,101117.00
2022-11-05T04:14:06.658Z,101131.41
2022-11-05T04:16:52.449Z,101118.88
2022-11-05T04:19:41.585Z,101138.16
2022-11-05T04:22:26.920Z,101145.47
2022-11-05T04:24:56.187Z,101150.09
2022-11-05T04:27:24.064Z,101158.47
2022-11-05T04:30:09.615Z,101146.53
2022-11-05T04:32:37.508Z,101152.81
2022-11-05T04:35:05.689Z,101140.66
2022-11-05T04:37:33.576Z,101160.16
2022-11-05T04:40:03.105Z,101160.16
2022-11-05T04:42:31.001Z,101161.00
2022-11-05T04:44:58.876Z,101136.31
2022-11-05T04:47:26.723Z,101169.16
2022-11-05T04:49:55.003Z,101157.44
2022-11-05T04:52:22.923Z,101161.00
2022-11-05T04:54:50.747Z,101155.53
2022-11-05T04:57:19.960Z,101158.28
2022-11-05T04:59:49.357Z,101155.53
2022-11-05T05:02:17.295Z,101149.25
2022-11-05T05:04:45.251Z,101153.66
2022-11-05T05:07:13.190Z,101150.94
2022-11-05T05:09:41.351Z,101151.78
2022-11-05T05:12:09.283Z,101148.22
2022-11-05T05:14:38.740Z,101152.63
2022-11-05T05:17:06.568Z,101161.84
2022-11-05T05:19:54.473Z,101155.34
2022-11-05T05:22:21.337Z,101164.56
2022-11-05T05:24:52.813Z,101165.41
2022-11-05T05:27:22.788Z,101162.22
2022-11-05T05:29:53.365Z,101163.72
2022-11-05T05:32:21.247Z,101170.84
2022-11-05T05:34:49.125Z,101160.56
2022-11-05T05:37:17.020Z,101179.03
2022-11-05T05:39:46.054Z,101171.69
2022-11-05T05:42:14.002Z,101159.31
2022-11-05T05:44:41.851Z,101178.78
2022-11-05T05:47:11.123Z,101173.56
2022-11-05T05:49:39.304Z,101179.03
2022-11-05T05:52:07.230Z,101184.47
2022-11-05T05:54:41.318Z,101171.28
2022-11-05T05:57:10.509Z,101189.91
2022-11-05T05:59:38.672Z,101198.94
2022-11-05T06:02:06.618Z,101193.47
2022-11-05T06:04:35.942Z,101198.94
2022-11-05T06:07:03.797Z,101206.25
2022-11-05T06:09:31.989Z,101208.75
2022-11-05T06:11:59.888Z,101207.09
2022-11-05T06:14:27.772Z,101210.66
2022-11-05T06:16:55.645Z,101216.31
2022-11-05T06:19:23.586Z,101206.47
2022-11-05T06:21:52.817Z,101216.31
2022-11-05T06:24:20.741Z,101212.75
2022-11-05T06:26:48.674Z,101205.41
2022-11-05T06:29:16.569Z,101222.81
2022-11-05T06:31:44.419Z,101226.59
2022-11-05T06:34:12.278Z,101227.22
2022-11-05T06:36:40.211Z,101228.06
2022-11-05T06:39:12.354Z,101238.13
2022-11-05T06:42:04.079Z,101240.00
2022-11-05T06:44:28.338Z,101240.84
2022-11-05T06:46:56.232Z,101248.19
2022-11-05T06:49:25.606Z,101242.72
2022-11-05T06:51:53.552Z,101245.47
2022-11-05T06:54:22.828Z,101250.06
2022-11-05T06:56:50.734Z,101250.06
2022-11-05T06:59:18.882Z,101229.78
2022-11-05T07:01:46.852Z,101262.66
2022-11-05T07:04:14.973Z,101262.66
2022-11-05T07:06:42.850Z,101264.53
2022-11-05T07:09:10.962Z,101268.94
2022-11-05T07:11:40.295Z,101251.72
2022-11-05T07:14:08.218Z,101279.84
2022-11-05T07:16:36.186Z,101293.44
2022-11-05T07:19:04.086Z,101280.03
2022-11-05T07:21:31.953Z,101271.25
2022-11-05T07:23:59.835Z,101280.88
2022-11-05T07:26:33.387Z,101286.31
2022-11-05T07:29:04.083Z,101219.84
2022-11-05T07:31:31.972Z,101293.84
2022-11-05T07:34:00.995Z,101293.22
2022-11-05T07:36:28.892Z,101292.81
2022-11-05T07:39:00.371Z,101307.28
2022-11-05T07:41:29.330Z,101309.16
2022-11-05T07:43:57.245Z,101315.47
2022-11-05T07:46:26.529Z,101304.56
2022-11-05T07:48:54.674Z,101303.91
2022-11-05T07:51:22.773Z,101309.81
2022-11-05T07:53:50.644Z,101305.41
2022-11-05T07:56:18.554Z,101305.19
2022-11-05T07:58:46.483Z,101307.06
2022-11-05T08:01:14.595Z,101308.97
2022-11-05T08:03:43.994Z,101309.81
2022-11-05T08:06:12.031Z,101294.94
2022-11-05T08:08:40.291Z,101256.69
2022-11-05T08:11:09.513Z,101313.56
2022-11-05T08:13:37.607Z,101320.69
2022-11-05T08:16:06.218Z,101307.28
2022-11-05T08:18:34.249Z,101297.88
2022-11-05T08:21:04.369Z,101320.69
2022-11-05T08:23:32.638Z,101327.00
2022-11-05T08:26:03.135Z,101322.59
2022-11-05T08:28:32.430Z,101290.56
2022-11-05T08:31:00.350Z,101320.69
2022-11-05T08:33:31.238Z,101328.03
2022-11-05T08:36:04.242Z,101321.53
2022-11-05T08:38:32.453Z,101321.53
2022-11-05T08:41:00.481Z,101308.56
2022-11-05T08:43:28.330Z,101299.97
2022-11-05T08:45:56.245Z,101323.19
2022-11-05T08:48:24.413Z,101330.56
2022-11-05T08:50:52.270Z,101324.25
2022-11-05T08:53:21.598Z,101321.53
2022-11-05T08:55:51.408Z,101336.00
2022-11-05T08:58:20.749Z,101332.19
2022-11-05T09:00:49.624Z,101338.72
2022-11-05T09:03:17.740Z,101335.75
2022-11-05T09:05:45.628Z,101342.06
2022-11-05T09:08:14.541Z,101340.38
2022-11-05T09:10:44.015Z,101324.44
2022-11-05T09:13:18.182Z,101344.78
2022-11-05T09:15:47.241Z,101346.47
2022-11-05T09:18:15.474Z,101338.28
2022-11-05T09:20:43.370Z,101270.72
2022-11-05T09:23:11.965Z,101326.97
2022-11-05T09:25:40.865Z,101354.44
2022-11-05T09:28:16.184Z,101348.97
2022-11-05T09:30:45.492Z,101353.59
2022-11-05T09:33:13.636Z,101350.03
2022-11-05T09:35:41.850Z,101274.28
2022-11-05T09:38:11.123Z,101344.56
2022-11-05T09:40:40.723Z,101350.03
2022-11-05T09:43:11.409Z,101356.31
2022-11-05T09:45:39.548Z,101355.47
2022-11-05T09:48:11.355Z,101348.13
2022-11-05T09:50:40.445Z,101348.13
2022-11-05T09:53:08.569Z,101350.84
2022-11-05T09:55:38.133Z,101351.69
2022-11-05T09:58:07.969Z,101336.00
2022-11-05T10:00:37.228Z,101358.84
2022-11-05T10:03:07.252Z,101338.94
2022-11-05T10:05:35.237Z,101276.59
2022-11-05T10:08:04.543Z,101358.00
2022-11-05T10:10:40.545Z,101266.38
2022-11-05T10:13:14.436Z,101358.00
2022-11-05T10:15:45.225Z,101362.38
2022-11-05T10:18:14.958Z,101292.09
2022-11-05T10:20:43.079Z,101357.75
2022-11-05T10:23:12.612Z,101367.81
2022-11-05T10:25:42.039Z,101365.09
2022-11-05T10:28:11.101Z,101355.88
2022-11-05T10:30:38.996Z,101351.06
2022-11-05T10:33:08.351Z,101358.38
2022-11-05T10:35:37.124Z,101315.31
2022-11-05T10:38:05.330Z,101362.78
2022-11-05T10:40:37.524Z,101366.34
2022-11-05T10:43:06.416Z,101359.63
2022-11-05T10:45:39.576Z,101365.50
2022-11-05T10:48:24.133Z,101351.72
2022-11-05T10:50:52.055Z,101379.13
2022-11-05T10:53:21.391Z,101309.88
2022-11-05T10:55:50.093Z,101373.69
2022-11-05T10:58:21.827Z,101376.63
2022-11-05T11:01:06.651Z,101378.31
2022-11-05T11:03:41.135Z,101358.00
2022-11-05T11:06:17.786Z,101372.84
2022-11-05T11:08:46.543Z,101374.75
2022-11-05T11:11:25.641Z,101351.94
2022-11-05T11:14:00.665Z,101366.56
2022-11-05T11:16:30.833Z,101364.69
2022-11-05T11:19:01.149Z,101364.69
2022-11-05T11:21:29.452Z,101361.94
2022-11-05T11:23:58.274Z,101364.69
2022-11-05T11:26:27.500Z,101353.78
2022-11-05T11:28:57.817Z,101361.13
2022-11-05T11:31:26.573Z,101354.63
2022-11-05T11:34:00.329Z,101357.53
2022-11-05T11:36:34.644Z,101351.25
2022-11-05T11:39:02.786Z,101339.97
2022-11-05T11:41:32.056Z,101359.44
2022-11-05T11:44:02.956Z,101326.34
2022-11-05T11:46:32.901Z,101363.00
2022-11-05T11:49:02.595Z,101354.25
2022-11-05T11:51:36.861Z,101364.88
2022-11-05T11:54:05.223Z,101363.84
2022-11-05T11:56:44.211Z,101353.78
2022-11-05T11:59:40.622Z,101326.13
2022-11-05T12:02:37.035Z,101316.09
2022-11-05T12:05:15.298Z,101342.69
2022-11-05T12:07:49.300Z,101351.88
2022-11-05T12:10:28.010Z,101353.56
2022-11-05T12:13:02.726Z,101354.63
2022-11-05T12:15:36.617Z,101348.31
2022-11-05T12:18:05.890Z,101354.63
2022-11-05T12:20:58.409Z,101134.44
2022-11-05T12:23:45.197Z,101356.50
2022-11-05T12:26:16.756Z,101348.53
2022-11-05T12:29:19.187Z,101349.56
2022-11-05T12:31:47.459Z,101343.28
2022-11-05T12:34:25.614Z,101352.53
2022-11-05T12:37:05.610Z,101266.13
2022-11-05T12:39:51.848Z,101349.56
2022-11-05T12:42:28.334Z,101347.94
2022-11-05T12:45:02.914Z,101336.41
2022-11-05T12:47:40.936Z,101348.97
2022-11-05T12:50:15.956Z,101334.09
2022-11-05T12:53:16.015Z,101344.75
2022-11-05T12:55:48.580Z,101345.59
2022-11-05T12:58:20.730Z,101343.91
2022-11-05T13:00:52.549Z,101321.75
2022-11-05T13:03:25.669Z,101333.22
2022-11-05T13:05:55.465Z,101302.06
2022-11-05T13:08:26.982Z,101252.31
2022-11-05T13:10:56.949Z,101317.97
2022-11-05T13:13:27.549Z,101305.38
2022-11-05T13:15:57.174Z,101232.41
2022-11-05T13:18:27.578Z,101275.69
2022-11-05T13:20:55.626Z,101310.81
2022-11-05T13:23:29.915Z,101289.69
2022-11-05T13:26:00.511Z,101322.31
2022-11-05T13:28:36.491Z,101315.22
2022-11-05T13:31:05.370Z,101286.56
2022-11-05T13:33:34.531Z,101317.97
2022-11-05T13:36:22.635Z,101310.81
2022-11-05T13:39:02.584Z,101301.63
2022-11-05T13:41:36.501Z,101264.53
2022-11-05T13:44:22.941Z,101293.63
2022-11-05T13:47:09.822Z,101296.38
2022-11-05T13:49:56.128Z,101294.47
2022-11-05T13:52:41.976Z,101294.47
2022-11-05T13:55:37.152Z,101292.81
2022-11-05T13:58:33.284Z,101295.53
2022-11-05T14:01:06.915Z,101290.28
2022-11-05T14:03:34.870Z,101285.66
2022-11-05T14:06:04.141Z,101267.25
2022-11-05T14:08:34.538Z,101282.94
2022-11-05T14:11:06.679Z,101227.53
2022-11-05T14:13:35.999Z,101274.56
2022-11-05T14:16:05.943Z,101272.69
2022-11-05T14:18:54.596Z,101272.44
2022-11-05T14:21:48.357Z,101272.44
2022-11-05T14:24:27.832Z,101267.81
2022-11-05T14:27:44.623Z,101261.59
2022-11-05T14:30:44.882Z,101273.53
2022-11-05T14:33:19.067Z,101264.91
2022-11-05T14:35:46.937Z,101206.75
2022-11-05T14:38:20.085Z,101263.41
2022-11-05T14:40:47.964Z,101252.94
2022-11-05T14:43:22.874Z,101225.34
2022-11-05T14:45:55.090Z,101250.88
2022-11-05T14:48:32.886Z,101251.25
2022-11-05T14:51:00.769Z,101252.69
2022-11-05T14:53:32.643Z,101239.50
2022-11-05T14:56:03.319Z,101249.06
2022-11-05T14:58:36.923Z,101252.19
2022-11-05T15:01:06.168Z,101231.53
2022-11-05T15:04:01.900Z,101242.41
2022-11-05T15:06:32.976Z,101256.19
2022-11-05T15:09:17.566Z,101238.44
2022-11-05T15:11:51.249Z,101234.47
2022-11-05T15:14:24.137Z,101250.75
2022-11-05T15:16:53.903Z,101264.53
2022-11-05T15:19:24.216Z,101257.44
2022-11-05T15:21:52.169Z,101226.75
2022-11-05T15:24:20.041Z,101259.50
2022-11-05T15:26:51.354Z,101274.22
2022-11-05T15:29:24.622Z,101270.66
2022-11-05T15:31:52.710Z,101259.31
2022-11-05T15:34:22.845Z,101260.38
2022-11-05T15:36:53.465Z,101256.22
2022-11-05T15:39:34.269Z,101258.31
2022-11-05T15:42:05.692Z,101245.38
2022-11-05T15:44:39.224Z,101260.63
2022-11-05T15:47:08.582Z,101261.91
2022-11-05T15:49:36.717Z,101258.38
2022-11-05T15:52:04.818Z,101259.41
2022-11-05T15:54:33.211Z,101259.63
2022-11-05T15:57:01.470Z,101244.16
2022-11-05T15:59:30.288Z,101144.09
2022-11-05T16:02:03.138Z,101262.78
2022-11-05T16:04:32.199Z,101267.41
2022-11-05T16:07:01.443Z,101269.28
2022-11-05T16:09:30.445Z,101269.28
2022-11-05T16:12:15.477Z,101276.44
2022-11-05T16:14:43.391Z,101268.25
2022-11-05T16:17:18.960Z,101275.34
2022-11-05T16:19:46.840Z,101272.63
2022-11-05T16:22:14.841Z,101264.44
2022-11-05T16:24:42.805Z,101271.56
2022-11-05T16:27:19.115Z,101251.09
2022-11-05T16:29:49.801Z,101274.09
2022-11-05T16:32:23.045Z,101220.56
2022-11-05T16:34:54.667Z,101274.94
2022-11-05T16:37:23.823Z,101270.31
2022-11-05T16:39:52.698Z,101262.00
2022-11-05T16:42:40.263Z,101275.13
2022-11-05T16:45:13.667Z,101270.97
2022-11-05T16:47:43.318Z,101282.25
2022-11-05T16:50:18.698Z,101260.50
2022-11-05T16:52:46.969Z,101277.03
2022-11-05T16:55:15.142Z,101277.25
2022-11-05T16:57:43.657Z,101287.09
2022-11-05T17:00:14.704Z,101240.88
2022-11-05T17:02:44.228Z,101277.47
2022-11-05T17:05:18.933Z,101274.75
2022-11-05T17:07:46.976Z,101289.41
2022-11-05T17:10:14.997Z,101286.06
2022-11-05T17:12:43.029Z,101277.88
2022-11-05T17:15:21.869Z,101289.63
2022-11-05T17:17:51.201Z,101243.00
2022-11-05T17:20:39.472Z,101287.16
2022-11-05T17:23:08.183Z,101290.06
2022-11-05T17:25:36.039Z,101279.19
2022-11-05T17:28:04.014Z,101273.72
2022-11-05T17:30:31.976Z,101278.34
2022-11-05T17:33:01.328Z,101277.28
2022-11-05T17:35:32.037Z,101289.03
2022-11-05T17:37:59.927Z,101273.72
2022-11-05T17:40:28.874Z,101280.41
2022-11-05T17:42:56.832Z,101293.81
2022-11-05T17:45:24.687Z,101282.91
2022-11-05T17:47:52.533Z,101291.09
2022-11-05T17:50:21.917Z,101284.81
2022-11-05T17:52:49.754Z,101294.88
2022-11-05T17:55:17.697Z,101295.91
2022-11-05T17:57:46.603Z,101295.06
2022-11-05T18:00:15.908Z,101288.84
2022-11-05T18:02:43.952Z,101307.25
2022-11-05T18:05:12.314Z,101299.94
2022-11-05T18:07:41.579Z,101292.41
2022-11-05T18:10:09.998Z,101288.22
2022-11-05T18:12:37.899Z,101302.84
2022-11-05T18:15:08.827Z,101300.13
2022-11-05T18:17:36.808Z,101288.63
2022-11-05T18:20:05.032Z,101304.75
2022-11-05T18:22:32.993Z,101310.19
2022-11-05T18:25:02.241Z,101264.16
2022-11-05T18:27:30.189Z,101305.78
2022-11-05T18:29:58.086Z,101306.03
2022-11-05T18:32:26.062Z,101304.94
2022-11-05T18:34:54.021Z,101303.06
2022-11-05T18:37:21.884Z,101299.75
2022-11-05T18:39:51.631Z,101302.22
2022-11-05T18:42:20.956Z,101301.38
2022-11-05T18:44:48.849Z,101295.13
2022-11-05T18:47:16.734Z,101295.13
2022-11-05T18:49:44.926Z,101300.34
2022-11-05T18:52:13.187Z,101294.06
2022-11-05T18:54:41.082Z,101297.63
2022-11-05T18:57:08.959Z,101300.34
2022-11-05T18:59:39.631Z,101297.41
2022-11-05T19:02:08.056Z,101278.97
2022-11-05T19:04:36.523Z,101293.22
2022-11-05T19:07:05.861Z,101296.78
2022-11-05T19:09:34.041Z,101297.63
2022-11-05T19:12:01.999Z,101298.47
2022-11-05T19:14:30.749Z,101297.63
2022-11-05T19:17:00.364Z,101296.56
2022-11-05T19:19:28.798Z,101270.81
2022-11-05T19:21:56.653Z,101302.00
2022-11-05T19:24:25.836Z,101290.66
2022-11-05T19:26:53.729Z,101298.16
2022-11-05T19:29:21.551Z,101293.13
2022-11-05T19:31:50.600Z,101298.81
2022-11-05T19:34:20.618Z,101293.91
2022-11-05T19:36:49.302Z,101297.06
2022-11-05T19:39:17.461Z,101290.09
2022-11-05T19:41:45.396Z,101286.16
2022-11-05T19:44:13.417Z,101297.19
2022-11-05T19:46:42.373Z,101306.00
2022-11-05T19:49:10.581Z,101309.56
2022-11-05T19:51:39.836Z,101309.56
2022-11-05T19:54:08.780Z,101305.78
2022-11-05T19:56:38.797Z,101279.88
2022-11-05T19:59:07.080Z,101300.31
2022-11-05T20:01:35.812Z,101288.38
2022-11-05T20:04:04.807Z,101298.19
2022-11-05T20:06:33.604Z,101277.72
2022-11-05T20:11:53.826Z,101285.63
2022-11-05T20:14:21.834Z,101287.53
2022-11-05T20:16:49.860Z,101272.72
2022-11-05T20:19:19.450Z,101291.09
2022-11-05T20:21:47.330Z,101302.84
2022-11-05T20:24:23.730Z,101313.75
2022-11-05T20:26:53.275Z,101312.91
2022-11-05T20:29:21.122Z,101279.69
2022-11-05T20:31:49.162Z,101310.41
2022-11-05T20:34:17.092Z,101309.56
2022-11-05T20:36:45.057Z,101305.16
2022-11-05T20:39:13.195Z,101302.41
2022-11-05T20:41:43.959Z,101295.28
2022-11-05T20:44:11.820Z,101298.25
2022-11-05T20:46:39.719Z,101289.84
2022-11-05T20:49:07.917Z,101282.75
2022-11-05T20:51:36.342Z,101296.38
2022-11-05T20:54:04.198Z,101285.47
2022-11-05T20:56:32.970Z,101287.34
2022-11-05T20:59:02.992Z,101268.38
2022-11-05T21:01:32.904Z,101293.22
2022-11-05T21:04:00.950Z,101294.91
2022-11-05T21:06:28.846Z,101299.50
2022-11-05T21:08:57.075Z,101302.88
2022-11-05T21:11:25.554Z,101296.38
2022-11-05T21:13:53.417Z,101285.91
2022-11-05T21:16:22.690Z,101292.56
2022-11-05T21:18:50.584Z,101303.72
2022-11-05T21:21:19.601Z,101311.47
2022-11-05T21:23:47.515Z,101310.06
2022-11-05T21:26:16.780Z,101306.72
2022-11-05T21:28:44.709Z,101324.53
2022-11-05T21:31:12.631Z,101310.50
2022-11-05T21:33:41.910Z,101322.47
2022-11-05T21:36:10.969Z,101319.09
2022-11-05T21:38:38.947Z,101313.06
2022-11-05T21:41:06.809Z,101319.75
2022-11-05T21:43:34.741Z,101301.56
2022-11-05T21:46:02.820Z,101308.22
2022-11-05T21:48:31.013Z,101306.34
2022-11-05T21:51:17.495Z,101283.09
2022-11-05T21:54:02.819Z,101270.72
2022-11-05T21:56:48.229Z,101262.78
2022-11-05T21:59:34.077Z,101272.03
2022-11-05T22:02:04.931Z,101267.63
2022-11-05T22:04:34.445Z,101265.09
2022-11-05T22:07:03.741Z,101270.56
2022-11-05T22:09:31.623Z,101270.78
2022-11-05T22:11:59.502Z,101268.06
2022-11-05T22:14:27.532Z,101262.63
2022-11-05T22:16:55.603Z,101261.78
2022-11-05T22:19:23.614Z,101264.50
2022-11-05T22:21:51.494Z,101265.16
2022-11-05T22:24:20.909Z,101240.22
2022-11-05T22:26:48.785Z,101252.13
2022-11-05T22:29:16.912Z,101250.25
2022-11-05T22:31:44.830Z,101247.53
2022-11-05T22:34:12.730Z,101255.91
2022-11-05T22:36:42.120Z,101248.56
2022-11-05T22:39:10.840Z,101232.03
2022-11-05T22:41:40.262Z,101228.69
2022-11-05T22:44:08.242Z,101245.00
2022-11-05T22:46:36.084Z,101240.63
2022-11-05T22:49:04.280Z,101225.53
2022-11-05T22:51:33.221Z,101235.19
2022-11-05T22:54:01.364Z,101233.69
2022-11-05T22:56:30.482Z,101224.88
2022-11-05T22:58:59.900Z,101215.03
2022-11-05T23:01:27.927Z,101222.38
2022-11-05T23:03:56.592Z,101207.69
2022-11-05T23:06:43.117Z,101206.88
2022-11-05T23:09:31.832Z,101203.94
2022-11-05T23:11:59.994Z,101213.78
2022-11-05T23:14:29.285Z,101211.25
2022-11-05T23:17:14.694Z,101193.28
2022-11-05T23:19:59.936Z,101197.44
2022-11-05T23:22:46.319Z,101205.59
2022-11-05T23:25:17.641Z,101219.22
2022-11-05T23:27:46.111Z,101207.50
2022-11-05T23:30:16.773Z,101209.16
2022-11-05T23:32:43.659Z,101197.25
2022-11-05T23:35:11.576Z,101203.72
2022-11-05T23:37:57.152Z,101201.84
2022-11-05T23:40:28.547Z,101192.81
2022-11-05T23:43:13.974Z,101193.03
2022-11-05T23:46:02.333Z,101185.31
2022-11-05T23:48:32.600Z,101184.66
2022-11-05T23:51:06.145Z,101192.81
2022-11-05T23:53:34.841Z,101190.94
2022-11-05T23:56:03.893Z,101184.66
2022-11-05T23:58:31.814Z,101181.91
